Time;durP1;ratioP1;P1;durP2;ratioP2;P2;SDS_P1;SDS_P2;PMS_P1;PMS_P2;Temp;Humidity;BMP_temperature;BMP_pressure;BME280_temperature;BME280_humidity;BME280_pressure;Samples;Min_cycle;Max_cycle;Signal;HPM_P1;HPM_P2
2020/12/27 00:01:45;;;;;;;10.90;7.22;;;;;;;-0.29;100.00;100740.56;1776922;80;21113;-59
2020/12/27 00:04:15;;;;;;;9.38;6.83;;;;;;;-0.30;100.00;100743.59;1776208;80;20955;-50
2020/12/27 00:06:44;;;;;;;7.62;5.40;;;;;;;-0.30;100.00;100739.74;1805603;79;21167;-50
2020/12/27 00:09:12;;;;;;;10.32;7.30;;;;;;;-0.31;100.00;100726.55;1779919;80;21105;-63
2020/12/27 00:11:40;;;;;;;9.75;7.10;;;;;;;-0.32;100.00;100731.33;1795703;79;21385;-59
2020/12/27 00:14:08;;;;;;;9.83;6.92;;;;;;;-0.31;100.00;100738.08;1781207;80;21149;-59
2020/12/27 00:16:37;;;;;;;9.58;6.35;;;;;;;-0.29;100.00;100732.41;1808154;79;21638;-59
2020/12/27 00:19:05;;;;;;;9.05;6.25;;;;;;;-0.27;100.00;100728.45;1773328;80;21148;-59
2020/12/27 00:21:33;;;;;;;8.60;5.90;;;;;;;-0.27;100.00;100734.86;1805634;79;21118;-60
2020/12/27 00:24:01;;;;;;;8.85;6.50;;;;;;;-0.29;100.00;100731.13;1773652;80;21211;-51
2020/12/27 00:26:29;;;;;;;9.25;5.75;;;;;;;-0.28;100.00;100731.95;1808928;79;21156;-60
2020/12/27 00:28:57;;;;;;;8.75;5.80;;;;;;;-0.27;100.00;100735.67;1790729;79;21085;-51
2020/12/27 00:31:25;;;;;;;8.43;5.80;;;;;;;-0.28;100.00;100734.05;1810788;79;21042;-60
2020/12/27 00:33:53;;;;;;;10.30;5.80;;;;;;;-0.29;100.00;100719.60;1776792;80;21196;-59
2020/12/27 00:36:22;;;;;;;8.65;6.40;;;;;;;-0.28;100.00;100724.27;1802559;79;21157;-59
2020/12/27 00:38:50;;;;;;;7.25;5.53;;;;;;;-0.28;100.00;100726.82;1777876;80;21134;-51
2020/12/27 00:41:25;;;;;;;8.98;6.53;;;;;;;-0.28;100.00;100736.60;1781007;79;21192;-52
2020/12/27 00:43:53;;;;;;;9.95;6.65;;;;;;;-0.28;100.00;100733.23;1802289;79;21006;-59
2020/12/27 00:46:22;;;;;;;7.60;5.80;;;;;;;-0.29;100.00;100729.84;1790585;80;21602;-50
2020/12/27 00:48:50;;;;;;;7.92;5.80;;;;;;;-0.30;100.00;100724.84;1803938;79;21360;-50
2020/12/27 00:51:26;;;;;;;9.13;6.30;;;;;;;-0.30;100.00;100719.25;1780135;80;21186;-59
2020/12/27 00:53:54;;;;;;;8.98;5.80;;;;;;;-0.29;100.00;100720.06;1776250;80;21120;-50
2020/12/27 00:56:23;;;;;;;9.20;6.67;;;;;;;-0.30;100.00;100722.28;1806874;79;21152;-51
2020/12/27 00:59:01;;;;;;;10.57;7.10;;;;;;;-0.25;100.00;100726.16;1874211;76;23591;-59
2020/12/27 01:01:29;;;;;;;14.68;9.25;;;;;;;-0.29;100.00;100731.59;1837673;77;20926;-50
2020/12/27 01:03:58;;;;;;;13.18;9.10;;;;;;;-0.30;100.00;100735.09;1830864;77;21181;-59
2020/12/27 01:06:27;;;;;;;10.72;7.58;;;;;;;-0.32;100.00;100739.48;1841293;77;21029;-50
2020/12/27 01:08:57;;;;;;;14.93;8.55;;;;;;;-0.36;100.00;100738.86;1788135;78;20990;-59
2020/12/27 01:11:26;;;;;;;11.78;8.70;;;;;;;-0.40;100.00;100751.51;1770762;80;20974;-51
2020/12/27 01:13:54;;;;;;;15.70;10.43;;;;;;;-0.43;100.00;100755.55;1775686;80;20983;-59
2020/12/27 01:16:23;;;;;;;14.18;9.15;;;;;;;-0.45;100.00;100759.96;1773153;80;21347;-50
2020/12/27 01:18:51;;;;;;;15.58;10.60;;;;;;;-0.49;100.00;100758.52;1775811;79;20958;-50
2020/12/27 01:21:24;;;;;;;17.12;11.95;;;;;;;-0.53;100.00;100756.61;1778453;79;21581;-50
2020/12/27 01:23:53;;;;;;;18.87;12.25;;;;;;;-0.54;100.00;100764.38;1775949;79;21081;-50
2020/12/27 01:26:29;;;;;;;19.87;12.70;;;;;;;-0.55;100.00;100767.87;1780775;79;21013;-50
2020/12/27 01:28:57;;;;;;;18.75;11.60;;;;;;;-0.55;100.00;100761.47;1780107;79;21360;-51
2020/12/27 01:31:26;;;;;;;19.23;13.55;;;;;;;-0.56;100.00;100754.71;1800832;78;20998;-59
2020/12/27 01:33:55;;;;;;;20.85;13.20;;;;;;;-0.55;100.00;100756.34;1807768;78;21133;-50
2020/12/27 01:36:29;;;;;;;17.77;12.15;;;;;;;-0.57;100.00;100755.17;1803036;78;21164;-60
2020/12/27 01:39:03;;;;;;;16.57;11.45;;;;;;;-0.55;100.00;100753.78;1809041;78;21022;-59
2020/12/27 01:41:32;;;;;;;20.02;12.68;;;;;;;-0.55;100.00;100755.87;1803653;78;22163;-50
2020/12/27 01:44:12;;;;;;;17.70;12.10;;;;;;;-0.56;100.00;100753.43;1809768;78;20966;-50
2020/12/27 01:46:46;;;;;;;18.80;12.87;;;;;;;-0.57;100.00;100750.05;1811844;78;21006;-50
2020/12/27 01:49:16;;;;;;;19.17;12.65;;;;;;;-0.57;100.00;100762.01;1809081;78;21843;-59
2020/12/27 01:51:45;;;;;;;18.25;12.98;;;;;;;-0.58;100.00;100766.78;1800023;78;20986;-60
2020/12/27 01:54:13;;;;;;;20.17;14.15;;;;;;;-0.59;100.00;100766.42;1813051;78;22382;-50
2020/12/27 01:57:14;;;;;;;23.93;15.20;;;;;;;-0.57;100.00;100780.78;1878376;76;23284;-59
2020/12/27 01:59:44;;;;;;;23.40;15.43;;;;;;;-0.62;100.00;100778.95;1847542;77;21554;-51
2020/12/27 02:02:14;;;;;;;20.00;14.25;;;;;;;-0.62;100.00;100784.53;1842707;77;21425;-60
2020/12/27 02:04:55;;;;;;;20.93;15.03;;;;;;;-0.60;100.00;100787.84;1792447;78;22766;-50
2020/12/27 02:07:27;;;;;;;20.05;14.00;;;;;;;-0.67;100.00;100792.52;1768264;80;20997;-51
2020/12/27 02:10:00;;;;;;;20.00;13.90;;;;;;;-0.71;100.00;100797.47;1761869;80;21385;-51
2020/12/27 02:12:29;;;;;;;18.98;13.08;;;;;;;-0.75;100.00;100803.70;1731897;80;21059;-60
2020/12/27 02:14:58;;;;;;;15.83;11.48;;;;;;;-0.79;100.00;100811.22;1761186;80;21058;-50
2020/12/27 02:17:27;;;;;;;17.50;12.43;;;;;;;-0.83;100.00;100814.42;1757539;80;21036;-60
2020/12/27 02:20:05;;;;;;;14.13;11.03;;;;;;;-0.82;100.00;100810.13;1803376;76;22727;-59
2020/12/27 02:22:35;;;;;;;14.83;10.10;;;;;;;-0.89;100.00;100823.75;1769842;80;20921;-59
2020/12/27 02:25:22;;;;;;;13.58;10.13;;;;;;;-0.92;100.00;100822.66;1763357;80;21497;-51
2020/12/27 02:27:51;;;;;;;15.80;10.18;;;;;;;-0.98;100.00;100817.94;1769457;80;21585;-51
2020/12/27 02:30:20;;;;;;;14.90;10.20;;;;;;;-1.03;100.00;100820.77;1763289;80;21036;-51
2020/12/27 02:32:50;;;;;;;13.80;9.95;;;;;;;-1.09;100.00;100813.48;1734451;80;21021;-61
2020/12/27 02:35:19;;;;;;;13.70;9.53;;;;;;;-1.12;100.00;100817.96;1767993;80;20985;-51
2020/12/27 02:37:48;;;;;;;12.68;9.23;;;;;;;-1.19;100.00;100822.63;1766688;80;21499;-51
2020/12/27 02:40:17;;;;;;;14.28;10.20;;;;;;;-1.24;100.00;100832.33;1764291;80;20977;-49
2020/12/27 02:43:04;;;;;;;13.48;9.30;;;;;;;-1.28;100.00;100832.15;1767482;80;21009;-49
2020/12/27 02:45:34;;;;;;;13.75;9.90;;;;;;;-1.34;100.00;100825.66;1765823;80;21467;-59
2020/12/27 02:48:04;;;;;;;15.55;10.45;;;;;;;-1.36;100.00;100819.83;1761128;80;21149;-49
2020/12/27 02:50:48;;;;;;;13.97;10.50;;;;;;;-1.34;100.00;100820.54;1857642;75;22764;-59
2020/12/27 02:53:17;;;;;;;16.95;11.20;;;;;;;-1.39;100.00;100822.56;1842602;77;20957;-59
2020/12/27 02:55:45;;;;;;;34.33;18.37;;;;;;;-1.39;100.00;100829.41;1816544;78;21775;-59
2020/12/27 02:58:13;;;;;;;94.47;42.48;;;;;;;-1.39;100.00;100836.63;1821928;78;21031;-59
2020/12/27 03:00:43;;;;;;;113.88;45.10;;;;;;;-1.38;100.00;100843.37;1810964;78;21031;-51
2020/12/27 03:03:33;;;;;;;192.40;63.73;;;;;;;-1.34;100.00;100843.55;1879396;75;22686;-60
2020/12/27 03:06:12;;;;;;;35.15;18.90;;;;;;;-1.38;100.00;100852.33;1803077;79;20923;-59
2020/12/27 03:08:41;;;;;;;29.60;16.00;;;;;;;-1.39;100.00;100849.88;1803385;79;21191;-60
2020/12/27 03:11:28;;;;;;;29.43;17.03;;;;;;;-1.36;100.00;100860.74;1885798;74;22749;-49
2020/12/27 03:13:57;;;;;;;20.05;12.35;;;;;;;-1.42;100.00;100864.93;1844443;75;20931;-50
2020/12/27 03:16:25;;;;;;;21.57;14.03;;;;;;;-1.45;100.00;100865.56;1782028;80;21206;-59
2020/12/27 03:19:12;;;;;;;15.98;10.88;;;;;;;-1.49;100.00;100873.88;1779691;79;21049;-60
2020/12/27 03:21:51;;;;;;;14.85;9.20;;;;;;;-1.51;100.00;100885.94;1751619;80;21031;-50
2020/12/27 03:24:46;;;;;;;15.57;9.70;;;;;;;-1.49;100.00;100875.15;1818863;76;22729;-50
2020/12/27 03:27:15;;;;;;;17.62;11.57;;;;;;;-1.54;100.00;100884.84;1777976;80;21012;-50
2020/12/27 03:29:44;;;;;;;15.63;10.55;;;;;;;-1.54;100.00;100882.28;1783626;79;21513;-50
2020/12/27 03:32:14;;;;;;;12.45;8.55;;;;;;;-1.54;100.00;100888.67;1781387;80;20982;-50
2020/12/27 03:34:43;;;;;;;13.03;9.23;;;;;;;-1.53;100.00;100901.35;1765363;80;21053;-59
2020/12/27 03:37:11;;;;;;;15.28;10.25;;;;;;;-1.53;100.00;100895.42;1773945;80;21033;-50
2020/12/27 03:39:51;;;;;;;14.77;9.70;;;;;;;-1.47;100.00;100897.63;1873564;75;22741;-59
2020/12/27 03:42:23;;;;;;;13.70;10.23;;;;;;;-1.51;100.00;100903.38;1855329;77;20984;-51
2020/12/27 03:45:00;;;;;;;15.40;9.95;;;;;;;-1.50;100.00;100897.34;1854349;77;21353;-50
2020/12/27 03:47:46;;;;;;;15.53;10.68;;;;;;;-1.48;100.00;100901.08;1858982;77;21040;-50
2020/12/27 03:50:16;;;;;;;12.80;9.03;;;;;;;-1.46;100.00;100908.22;1855591;77;20966;-59
2020/12/27 03:52:54;;;;;;;11.70;7.73;;;;;;;-1.40;100.00;100910.42;1872769;76;22699;-49
2020/12/27 03:55:24;;;;;;;11.73;8.25;;;;;;;-1.44;100.00;100915.33;1727845;80;20935;-59
2020/12/27 03:58:11;;;;;;;13.05;9.88;;;;;;;-1.37;100.00;100923.01;1851857;76;38101;-50
2020/12/27 04:00:44;;;;;;;13.28;9.53;;;;;;;-1.36;100.00;100926.41;1807629;78;21197;-58
2020/12/27 04:03:26;;;;;;;14.18;9.85;;;;;;;-1.31;100.00;100921.37;1813421;78;21202;-49
2020/12/27 04:05:56;;;;;;;12.47;8.55;;;;;;;-1.31;100.00;100930.33;1806897;78;20995;-50
2020/12/27 04:08:26;;;;;;;11.63;8.00;;;;;;;-1.30;100.00;100933.70;1812959;77;20934;-50
2020/12/27 04:10:55;;;;;;;12.82;9.55;;;;;;;-1.30;100.00;100928.59;1801820;78;21600;-59
2020/12/27 04:13:23;;;;;;;15.08;9.60;;;;;;;-1.31;100.00;100931.61;1813955;78;21052;-59
2020/12/27 04:15:53;;;;;;;13.40;9.40;;;;;;;-1.30;100.00;100936.27;1808289;77;21285;-49
2020/12/27 04:18:23;;;;;;;12.63;9.35;;;;;;;-1.30;100.00;100933.25;1804975;78;21029;-59
2020/12/27 04:21:01;;;;;;;13.67;9.47;;;;;;;-1.26;100.00;100938.55;1867548;76;22725;-50
2020/12/27 04:23:29;;;;;;;13.32;9.50;;;;;;;-1.30;100.00;100942.20;1772561;79;21102;-50
2020/12/27 04:25:58;;;;;;;13.03;9.38;;;;;;;-1.29;100.00;100957.94;1797226;78;21372;-59
2020/12/27 04:28:27;;;;;;;12.28;8.80;;;;;;;-1.29;100.00;100963.05;1792196;79;20985;-55
2020/12/27 04:30:55;;;;;;;14.25;8.70;;;;;;;-1.28;100.00;100964.69;1774819;79;21033;-49
2020/12/27 04:33:31;;;;;;;15.70;10.80;;;;;;;-1.28;100.00;100972.82;1775904;79;20978;-49
2020/12/27 04:36:12;;;;;;;12.73;9.30;;;;;;;-1.24;100.00;100973.83;1867935;75;22246;-59
2020/12/27 04:38:40;;;;;;;15.75;9.08;;;;;;;-1.26;100.00;100975.64;1843527;77;20980;-50
2020/12/27 04:41:11;;;;;;;72.60;32.78;;;;;;;-1.25;100.00;100978.58;1852368;77;21198;-49
2020/12/27 04:43:41;;;;;;;44.48;22.13;;;;;;;-1.23;100.00;100972.91;1823339;77;20962;-58
2020/12/27 04:46:11;;;;;;;51.37;26.37;;;;;;;-1.22;100.00;100973.27;1851940;77;20950;-58
2020/12/27 04:48:43;;;;;;;243.90;111.42;;;;;;;-1.21;100.00;100981.79;1850479;77;20954;-58
2020/12/27 04:51:26;;;;;;;118.10;83.00;;;;;;;-1.18;100.00;100982.86;1839322;76;22780;-59
2020/12/27 04:53:56;;;;;;;57.98;48.17;;;;;;;-1.22;100.00;100990.35;1748381;81;21052;-57
2020/12/27 04:56:26;;;;;;;32.30;23.92;;;;;;;-1.23;100.00;100988.25;1727880;82;21345;-49
2020/12/27 04:59:04;;;;;;;21.00;14.40;;;;;;;-1.23;100.00;100985.70;1870159;75;23426;-49
2020/12/27 05:01:33;;;;;;;16.57;11.33;;;;;;;-1.30;100.00;100995.91;1844818;77;20939;-49
2020/12/27 05:04:09;;;;;;;15.53;9.80;;;;;;;-1.33;100.00;100996.54;1842163;77;21369;-49
2020/12/27 05:06:47;;;;;;;14.90;10.07;;;;;;;-1.30;100.00;100993.35;1859642;76;22691;-50
2020/12/27 05:09:19;;;;;;;19.50;13.60;;;;;;;-1.34;100.00;101000.84;1846012;77;21473;-50
2020/12/27 05:11:48;;;;;;;15.65;11.78;;;;;;;-1.35;100.00;101004.31;1824519;77;21253;-49
2020/12/27 05:14:26;;;;;;;13.03;10.28;;;;;;;-1.34;100.00;101011.52;1824205;77;21017;-49
2020/12/27 05:16:57;;;;;;;13.75;10.13;;;;;;;-1.35;100.00;101008.15;1851149;77;20962;-50
2020/12/27 05:19:28;;;;;;;18.05;13.48;;;;;;;-1.35;100.00;101020.12;1855744;77;20886;-50
2020/12/27 05:22:08;;;;;;;19.67;13.98;;;;;;;-1.37;100.00;101021.47;1856505;77;20941;-50
2020/12/27 05:24:39;;;;;;;14.87;11.10;;;;;;;-1.38;100.00;101030.06;1825121;77;21206;-55
2020/12/27 05:27:14;;;;;;;13.72;10.53;;;;;;;-1.40;100.00;101030.61;1855875;77;21128;-59
2020/12/27 05:29:42;;;;;;;;;;;;;;;-1.41;100.00;101044.29;1854852;77;21586;-59
2020/12/27 05:32:30;;;;;;;15.05;10.35;;;;;;;-1.42;100.00;101057.99;1848868;77;20168;-50
2020/12/27 05:35:11;;;;;;;13.07;9.70;;;;;;;-1.38;100.00;101043.30;1800076;76;22723;-59
2020/12/27 05:37:53;;;;;;;15.28;10.75;;;;;;;-1.42;100.00;101053.34;1777975;80;20942;-58
2020/12/27 05:40:40;;;;;;;15.75;10.65;;;;;;;-1.42;100.00;101063.11;1770463;80;21195;-60
2020/12/27 05:43:27;;;;;;;14.10;10.13;;;;;;;-1.38;100.00;101057.37;1825029;76;22648;-50
2020/12/27 05:46:02;;;;;;;15.75;11.55;;;;;;;-1.42;100.00;101061.83;1782081;80;21063;-50
2020/12/27 05:48:31;;;;;;;13.43;10.05;;;;;;;-1.42;100.00;101071.23;1771325;80;21202;-60
2020/12/27 05:51:02;;;;;;;18.82;13.98;;;;;;;-1.42;100.00;101078.45;1768283;80;21056;-60
2020/12/27 05:53:32;;;;;;;16.87;10.82;;;;;;;-1.43;100.00;101079.37;1751297;80;20990;-58
2020/12/27 05:56:01;;;;;;;;;;;;;;;-1.43;100.00;101084.48;1775142;80;21165;-60
2020/12/27 05:58:31;;;;;;;15.68;12.10;;;;;;;-1.42;100.00;101097.63;1745384;80;20105;-60
2020/12/27 06:01:01;;;;;;;22.50;16.80;;;;;;;-1.43;100.00;101097.27;1771646;80;22230;-51
2020/12/27 06:03:32;;;;;;;16.73;12.65;;;;;;;-1.43;100.00;101097.73;1723711;80;26585;-59
2020/12/27 06:06:11;;;;;;;15.20;11.30;;;;;;;-1.42;100.00;101105.77;1737191;80;21479;-50
2020/12/27 06:09:03;;;;;;;23.52;16.75;;;;;;;-1.42;100.00;101104.02;1771947;80;21138;-59
2020/12/27 06:11:53;;;;;;;21.70;17.25;;;;;;;-1.40;100.00;101108.61;1765778;80;21077;-58
2020/12/27 06:14:40;;;;;;;36.23;28.67;;;;;;;-1.33;100.00;101113.73;1815242;76;22720;-58
2020/12/27 06:17:56;;;;;;;32.95;26.10;;;;;;;-1.36;100.00;101116.94;1769371;80;21048;-50
2020/12/27 06:20:41;;;;;;;34.27;26.13;;;;;;;-1.33;100.00;101120.12;1825743;76;22718;-50
2020/12/27 06:23:10;;;;;;;43.50;32.67;;;;;;;-1.37;100.00;101124.22;1800001;78;21053;-49
2020/12/27 06:25:54;;;;;;;50.33;37.63;;;;;;;-1.35;100.00;101127.07;1868841;75;22718;-49
2020/12/27 06:28:22;;;;;;;33.35;25.05;;;;;;;-1.40;100.00;101134.61;1837459;77;21190;-50
2020/12/27 06:30:52;;;;;;;24.60;17.40;;;;;;;-1.41;100.00;101136.34;1815261;77;21339;-50
2020/12/27 06:33:38;;;;;;;19.57;14.27;;;;;;;-1.38;100.00;101140.02;1863123;75;22695;-50
2020/12/27 06:36:31;;;;;;;18.90;12.58;;;;;;;-1.44;100.00;101140.80;1739632;80;21006;-50
2020/12/27 06:39:26;;;;;;;20.35;11.25;;;;;;;-1.47;100.00;101146.94;1735130;80;21271;-48
2020/12/27 06:42:18;;;;;;;15.65;10.35;;;;;;;-1.52;100.00;101149.72;1756319;80;21733;-49
2020/12/27 06:44:53;;;;;;;13.30;9.18;;;;;;;-1.55;100.00;101159.31;1737341;80;20986;-49
2020/12/27 06:47:51;;;;;;;19.12;12.43;;;;;;;-1.60;100.00;101155.70;1737677;80;21048;-50
2020/12/27 06:50:24;;;;;;;18.20;11.60;;;;;;;-1.62;100.00;101168.22;1753815;80;21185;-48
2020/12/27 06:53:01;;;;;;;14.47;10.17;;;;;;;-1.61;100.00;101174.97;1878499;75;23331;-48
2020/12/27 06:55:48;;;;;;;16.67;12.68;;;;;;;-1.62;100.00;101177.98;1844553;76;27861;-50
2020/12/27 06:58:23;;;;;;;18.23;11.85;;;;;;;-1.63;100.00;101179.33;1832647;77;21596;-49
2020/12/27 07:01:13;;;;;;;18.35;11.55;;;;;;;-1.55;100.00;101174.20;1803609;78;21367;-58
2020/12/27 07:03:43;;;;;;;15.63;10.53;;;;;;;-1.38;100.00;101166.88;1803870;77;20978;-58
2020/12/27 07:06:24;;;;;;;16.62;10.88;;;;;;;-0.96;100.00;101176.92;1804536;78;28529;-58
2020/12/27 07:08:56;;;;;;;15.10;10.53;;;;;;;-0.47;100.00;101174.58;1808641;77;20968;-58
2020/12/27 07:11:25;;;;;;;13.90;8.78;;;;;;;0.21;100.00;101175.59;1778080;78;20914;-56
2020/12/27 07:13:55;;;;;;;14.73;9.23;;;;;;;0.93;100.00;101187.77;1803772;78;21364;-50
2020/12/27 07:16:44;;;;;;;14.33;9.65;;;;;;;1.59;100.00;101184.77;1807195;78;21049;-58
2020/12/27 07:19:16;;;;;;;13.45;8.25;;;;;;;2.27;100.00;101182.73;1796691;78;21013;-51
2020/12/27 07:21:47;;;;;;;12.88;8.50;;;;;;;3.08;100.00;101182.94;1813226;78;21017;-51
2020/12/27 07:24:24;;;;;;;11.25;8.03;;;;;;;3.72;100.00;101184.27;1799183;77;20938;-56
2020/12/27 07:26:53;;;;;;;12.20;8.57;;;;;;;4.26;100.00;101190.01;1803845;78;21189;-58
2020/12/27 07:29:24;;;;;;;11.57;9.57;;;;;;;4.83;100.00;101192.81;1812698;77;21258;-58
2020/12/27 07:31:52;;;;;;;12.33;8.27;;;;;;;5.29;100.00;101192.97;1806432;78;21243;-57
2020/12/27 07:34:30;;;;;;;17.43;12.33;;;;;;;5.76;100.00;101195.51;1811551;78;21271;-57
2020/12/27 07:37:01;;;;;;;12.73;10.50;;;;;;;6.28;100.00;101200.63;1809630;78;21372;-59
2020/12/27 07:39:48;;;;;;;13.73;10.07;;;;;;;6.67;100.00;101197.67;1815096;77;21417;-52
2020/12/27 07:42:34;;;;;;;14.27;9.80;;;;;;;7.23;100.00;101211.72;1867925;75;22633;-51
2020/12/27 07:45:12;;;;;;;12.67;8.87;;;;;;;7.71;100.00;101208.23;1855864;77;20974;-51
2020/12/27 07:47:41;;;;;;;13.17;9.73;;;;;;;7.71;100.00;101208.23;1851332;77;21177;-53
2020/12/27 07:50:14;;;;;;;12.97;9.50;;;;;;;7.44;100.00;101216.28;1857080;77;21635;-59
2020/12/27 07:52:58;;;;;;;12.50;9.53;;;;;;;6.93;100.00;101227.78;1853903;77;21622;-59
2020/12/27 07:55:34;;;;;;;14.20;9.13;;;;;;;6.80;100.00;101217.66;1856079;77;21699;-59
2020/12/27 07:58:05;;;;;;;11.70;8.73;;;;;;;6.80;100.00;101217.66;1846358;77;21647;-59
2020/12/27 08:00:36;;;;;;;11.80;8.75;;;;;;;7.02;100.00;101230.02;1854976;77;21619;-59
2020/12/27 08:03:09;;;;;;;11.73;9.00;;;;;;;7.31;100.00;101230.84;1856043;77;20964;-58
2020/12/27 08:05:38;;;;;;;12.40;8.80;;;;;;;7.59;100.00;101240.02;1857429;77;20957;-50
2020/12/27 08:10:48;;;;;;;12.03;8.27;;;;;;;8.14;100.00;101225.84;1821448;76;22743;-58
2020/12/27 08:13:16;;;;;;;15.40;10.27;;;;;;;8.28;100.00;101232.34;1799017;79;20946;-58
2020/12/27 08:15:44;;;;;;;14.23;10.03;;;;;;;8.33;100.00;101230.13;1778925;80;21933;-50
2020/12/27 08:18:13;;;;;;;10.43;8.20;;;;;;;8.33;100.00;101227.53;1783717;80;21029;-50
2020/12/27 08:20:48;;;;;;;11.27;7.40;;;;;;;8.49;100.00;101236.86;1784967;80;20951;-49
2020/12/27 08:23:17;;;;;;;8.83;6.47;;;;;;;8.72;100.00;101234.67;1784778;80;21049;-59
2020/12/27 08:25:45;;;;;;;9.90;6.30;;;;;;;8.84;96.36;101239.66;1779336;80;21618;-58
2020/12/27 08:28:16;;;;;;;9.57;8.00;;;;;;;8.83;95.54;101241.45;1777277;80;22074;-50
2020/12/27 08:30:45;;;;;;;7.00;5.90;;;;;;;8.89;93.25;101247.34;1784628;80;21112;-50
2020/12/27 08:33:18;;;;;;;8.40;6.47;;;;;;;9.03;90.23;101249.92;1771853;79;20962;-50
2020/12/27 08:35:50;;;;;;;12.75;7.45;;;;;;;9.20;89.63;101254.28;1772705;80;20922;-50
2020/12/27 08:38:53;;;;;;;8.90;7.63;;;;;;;9.33;86.76;101247.91;1773572;79;21049;-50
2020/12/27 08:41:24;;;;;;;9.57;6.80;;;;;;;9.44;86.62;101240.67;1724348;80;21286;-59
2020/12/27 08:44:06;;;;;;;8.20;6.03;;;;;;;9.67;83.77;101236.28;1768914;79;21018;-60
2020/12/27 08:46:37;;;;;;;8.57;7.60;;;;;;;9.78;79.56;101242.54;1777728;80;21479;-59
2020/12/27 08:49:40;;;;;;;6.47;4.92;;;;;;;9.79;78.62;101245.47;1773175;79;20970;-59
2020/12/27 08:52:20;;;;;;;7.83;5.23;;;;;;;9.81;76.76;101244.00;1773669;80;21092;-59
2020/12/27 08:55:04;;;;;;;6.80;5.08;;;;;;;9.64;73.78;101241.79;1771156;79;21367;-60
2020/12/27 08:57:32;;;;;;;7.17;5.23;;;;;;;9.58;72.66;101243.69;1770573;80;21163;-59
2020/12/27 09:00:06;;;;;;;6.60;4.90;;;;;;;9.55;71.58;101249.22;1769359;79;21037;-60
2020/12/27 09:02:35;;;;;;;7.20;4.37;;;;;;;9.49;70.74;101250.63;1780771;80;20935;-52
2020/12/27 09:05:06;;;;;;;5.37;4.03;;;;;;;9.43;68.26;101246.02;1784619;79;21155;-59
2020/12/27 09:07:40;;;;;;;6.53;4.80;;;;;;;9.40;68.29;101254.96;1784787;80;21336;-59
2020/12/27 09:10:20;;;;;;;7.23;5.03;;;;;;;9.46;68.06;101266.05;1780464;79;21575;-60
2020/12/27 09:13:08;;;;;;;8.07;5.53;;;;;;;9.51;67.67;101253.91;1776437;80;21069;-61
2020/12/27 09:15:45;;;;;;;7.37;5.13;;;;;;;9.56;67.04;101258.17;1784449;80;20926;-50
2020/12/27 09:18:19;;;;;;;7.47;4.80;;;;;;;9.65;66.20;101258.55;1783936;80;21160;-51
2020/12/27 09:20:48;;;;;;;8.00;5.70;;;;;;;9.63;65.89;101259.20;1778082;80;21302;-60
2020/12/27 09:23:20;;;;;;;8.40;6.27;;;;;;;9.62;65.41;101265.38;1784239;79;20966;-59
2020/12/27 09:26:10;;;;;;;9.33;7.20;;;;;;;9.60;64.70;101266.00;1779881;80;21035;-59
2020/12/27 09:28:39;;;;;;;8.87;6.03;;;;;;;9.57;66.17;101269.39;1783680;79;20958;-59
2020/12/27 09:31:13;;;;;;;9.07;5.90;;;;;;;9.62;66.02;101275.80;1783631;80;20966;-60
2020/12/27 09:33:48;;;;;;;9.00;6.93;;;;;;;9.68;64.27;101274.36;1781183;79;21855;-60
2020/12/27 09:36:17;;;;;;;7.57;6.07;;;;;;;9.71;63.23;101270.97;1783557;80;21029;-52
2020/12/27 09:38:46;;;;;;;9.77;8.00;;;;;;;9.65;64.32;101270.26;1783795;79;21002;-52
2020/12/27 09:41:17;;;;;;;7.40;5.67;;;;;;;9.68;63.76;101272.56;1782349;80;21311;-52
2020/12/27 09:43:55;;;;;;;7.60;5.80;;;;;;;9.64;62.49;101283.44;1784113;79;21852;-53
2020/12/27 09:46:51;;;;;;;9.47;6.40;;;;;;;9.54;61.59;101294.41;1781033;80;21382;-52
2020/12/27 09:52:12;;;;;;;8.00;5.53;;;;;;;9.53;62.67;101290.19;1858801;76;20910;-51
2020/12/27 09:54:42;;;;;;;9.30;6.67;;;;;;;9.50;61.41;101288.69;1823127;77;20996;-60
2020/12/27 09:57:22;;;;;;;8.30;6.50;;;;;;;9.43;61.42;101287.20;1803020;78;22246;-60
2020/12/27 09:59:53;;;;;;;7.57;5.50;;;;;;;9.38;59.58;101295.10;1785320;78;21694;-61
2020/12/27 10:02:21;;;;;;;6.30;4.83;;;;;;;9.33;62.55;101298.16;1815958;78;21673;-60
2020/12/27 10:04:49;;;;;;;10.20;5.53;;;;;;;9.36;61.93;101295.27;1807244;78;21690;-60
2020/12/27 10:07:19;;;;;;;7.20;5.47;;;;;;;9.37;62.72;101294.29;1811592;78;21616;-51
2020/12/27 10:09:47;;;;;;;7.60;5.40;;;;;;;9.32;60.05;101291.33;1813672;77;21644;-52
2020/12/27 10:12:15;;;;;;;7.33;5.17;;;;;;;9.12;59.55;101300.23;1809798;78;21737;-51
2020/12/27 10:14:43;;;;;;;6.97;4.60;;;;;;;8.99;59.89;101296.21;1805257;77;21405;-61
2020/12/27 10:17:11;;;;;;;6.53;4.50;;;;;;;8.94;60.97;101288.50;1806444;78;21826;-52
2020/12/27 10:19:40;;;;;;;6.90;4.90;;;;;;;8.98;60.06;101293.28;1801006;77;21684;-52
2020/12/27 10:22:08;;;;;;;5.80;4.17;;;;;;;8.99;58.97;101288.41;1802223;78;21339;-61
2020/12/27 10:24:36;;;;;;;6.20;4.27;;;;;;;9.01;59.01;101292.96;1763762;79;21571;-61
2020/12/27 10:27:05;;;;;;;5.97;4.33;;;;;;;9.01;59.01;101292.96;1775399;80;21546;-60
2020/12/27 10:29:34;;;;;;;5.47;4.00;;;;;;;9.07;59.51;101297.26;1746230;81;21785;-61
2020/12/27 10:32:05;;;;;;;6.37;4.70;;;;;;;9.12;55.73;101298.92;1775286;80;21855;-53
2020/12/27 10:34:34;;;;;;;6.47;4.55;;;;;;;9.12;55.73;101298.92;1772468;79;21482;-51
2020/12/27 10:37:03;;;;;;;6.70;4.63;;;;;;;9.09;55.26;101296.61;1769506;80;21868;-52
2020/12/27 10:39:31;;;;;;;6.20;4.03;;;;;;;9.11;56.23;101301.20;1736559;80;21856;-60
2020/12/27 10:42:00;;;;;;;6.10;4.03;;;;;;;9.11;56.23;101298.59;1744050;81;21452;-53
2020/12/27 10:44:28;;;;;;;6.37;4.20;;;;;;;9.11;56.20;101302.02;1734820;81;21878;-51
2020/12/27 10:46:56;;;;;;;5.70;4.13;;;;;;;9.10;54.97;101299.57;1746219;81;21570;-50
2020/12/27 10:49:25;;;;;;;8.33;6.03;;;;;;;9.09;55.05;101295.31;1741617;81;21577;-50
2020/12/27 10:51:53;;;;;;;8.00;5.20;;;;;;;9.09;55.05;101295.31;1742123;81;21570;-49
2020/12/27 10:54:21;;;;;;;7.07;4.83;;;;;;;9.10;58.87;101303.47;1731792;81;21590;-61
2020/12/27 10:56:49;;;;;;;9.73;4.80;;;;;;;9.10;58.87;101307.38;1748216;81;21824;-49
2020/12/27 10:59:18;;;;;;;6.60;4.53;;;;;;;9.08;58.48;101304.09;1734657;81;21688;-60
2020/12/27 11:01:48;;;;;;;7.00;5.57;;;;;;;8.92;57.55;101304.26;1733530;81;21700;-60
2020/12/27 11:04:16;;;;;;;6.80;5.07;;;;;;;8.81;58.22;101306.24;1742689;81;21503;-51
2020/12/27 11:06:44;;;;;;;8.53;6.13;;;;;;;8.81;58.22;101306.24;1736373;81;21682;-59
2020/12/27 11:09:13;;;;;;;9.33;7.30;;;;;;;8.76;59.94;101305.39;1730261;81;21684;-50
2020/12/27 11:11:41;;;;;;;11.03;7.17;;;;;;;8.74;59.09;101308.59;1738843;81;21680;-50
2020/12/27 11:14:09;;;;;;;7.73;5.23;;;;;;;8.59;59.47;101298.35;1734221;81;21590;-51
2020/12/27 11:16:38;;;;;;;7.07;5.00;;;;;;;8.45;60.17;101304.86;1740227;81;21605;-52
2020/12/27 11:19:06;;;;;;;6.83;4.90;;;;;;;8.45;60.17;101304.86;1744354;81;22124;-60
2020/12/27 11:21:35;;;;;;;7.13;4.73;;;;;;;8.38;59.85;101316.78;1735223;81;21308;-50
2020/12/27 11:24:03;;;;;;;6.90;5.10;;;;;;;8.27;60.78;101315.14;1733779;81;21401;-58
2020/12/27 11:26:31;;;;;;;7.40;5.07;;;;;;;8.20;60.81;101313.58;1730929;81;21196;-59
2020/12/27 11:28:59;;;;;;;6.20;4.53;;;;;;;8.15;60.86;101314.98;1742397;80;21296;-51
2020/12/27 11:31:28;;;;;;;7.47;5.07;;;;;;;8.07;60.84;101316.14;1728900;81;21369;-60
2020/12/27 11:33:56;;;;;;;7.60;5.43;;;;;;;7.96;61.24;101321.86;1730072;81;21429;-52
2020/12/27 11:36:24;;;;;;;8.23;6.10;;;;;;;7.87;61.60;101329.16;1737345;81;21333;-61
2020/12/27 11:38:52;;;;;;;7.87;5.23;;;;;;;7.80;62.26;101335.41;1738967;80;21937;-52
2020/12/27 11:41:20;;;;;;;5.97;4.47;;;;;;;7.76;62.11;101340.50;1742379;81;21393;-60
2020/12/27 11:43:48;;;;;;;7.23;5.07;;;;;;;7.68;62.67;101344.75;1743162;80;21245;-51
2020/12/27 11:46:17;;;;;;;9.90;4.80;;;;;;;7.59;62.39;101344.30;1740255;81;21414;-51
2020/12/27 11:48:45;;;;;;;8.63;4.70;;;;;;;7.44;63.11;101347.28;1743627;80;21266;-52